Time;durP1;ratioP1;P1;durP2;ratioP2;P2;SDS_P1;SDS_P2;PMS_P1;PMS_P2;Temp;Humidity;BMP_temperature;BMP_pressure;BME280_temperature;BME280_humidity;BME280_pressure;Samples;Min_cycle;Max_cycle;Signal;HPM_P1;HPM_P2
2022/09/30 00:01:50;;;;;;;0.50;0.50;;;10.30;99.90;;;;;;5006135;27;20135;-80
2022/09/30 00:04:19;;;;;;;0.50;0.50;;;10.30;99.90;;;;;;5028066;27;20119;-80
2022/09/30 00:06:45;;;;;;;0.57;0.57;;;10.20;99.90;;;;;;5017028;27;20055;-80
2022/09/30 00:09:12;;;;;;;0.50;0.50;;;10.20;99.90;;;;;;5030930;27;20047;-80
2022/09/30 00:11:38;;;;;;;0.50;0.50;;;10.20;99.90;;;;;;5007904;27;20378;-80
2022/09/30 00:14:06;;;;;;;0.50;0.50;;;10.10;99.90;;;;;;5023939;27;20556;-80
2022/09/30 00:16:35;;;;;;;0.50;0.50;;;10.10;99.90;;;;;;5023695;27;20043;-80
2022/09/30 00:19:03;;;;;;;0.50;0.50;;;10.20;99.90;;;;;;5027182;27;20447;-79
2022/09/30 00:21:29;;;;;;;0.50;0.50;;;10.10;99.90;;;;;;5000193;27;20112;-80
2022/09/30 00:23:55;;;;;;;0.50;0.50;;;10.20;99.90;;;;;;5025388;27;20671;-80
2022/09/30 00:26:22;;;;;;;0.50;0.50;;;10.20;99.90;;;;;;5027657;27;20129;-80
2022/09/30 00:28:51;;;;;;;0.50;0.50;;;10.20;99.90;;;;;;5023629;27;20078;-80
2022/09/30 00:31:18;;;;;;;0.50;0.50;;;10.30;99.90;;;;;;5032002;27;20054;-80
2022/09/30 00:34:05;;;;;;;0.50;0.50;;;10.30;99.90;;;;;;5031097;27;20047;-80
2022/09/30 00:36:37;;;;;;;0.50;0.50;;;10.40;99.90;;;;;;5025911;27;20043;-79
2022/09/30 00:39:05;;;;;;;0.50;0.50;;;10.30;99.90;;;;;;5023278;27;20842;-80
2022/09/30 00:41:31;;;;;;;0.50;0.50;;;10.40;99.90;;;;;;5006558;27;20059;-80
2022/09/30 00:43:57;;;;;;;0.60;0.60;;;10.40;99.90;;;;;;5025379;27;20161;-80
2022/09/30 00:46:37;;;;;;;0.60;0.60;;;10.40;99.90;;;;;;5034555;27;20329;-79
2022/09/30 00:49:12;;;;;;;0.60;0.60;;;10.40;99.90;;;;;;5027381;27;20052;-80
2022/09/30 00:51:44;;;;;;;0.50;0.50;;;10.40;99.90;;;;;;5006416;28;20149;-79
2022/09/30 00:54:16;;;;;;;0.50;0.50;;;10.40;99.90;;;;;;5015725;27;20043;-79
2022/09/30 00:56:45;;;;;;;0.50;0.50;;;10.40;99.90;;;;;;5023742;28;20066;-79
2022/09/30 00:59:16;;;;;;;0.50;0.50;;;10.30;99.90;;;;;;5022621;28;20058;-79
2022/09/30 01:01:43;;;;;;;0.50;0.50;;;10.30;99.90;;;;;;5008251;27;20047;-79
2022/09/30 01:04:14;;;;;;;0.50;0.50;;;10.30;99.90;;;;;;5007497;28;20047;-79
2022/09/30 01:06:41;;;;;;;0.50;0.50;;;10.30;99.90;;;;;;5044769;27;20170;-79
2022/09/30 01:09:08;;;;;;;0.50;0.50;;;10.30;99.90;;;;;;5042315;27;20235;-80
2022/09/30 01:11:35;;;;;;;0.60;0.60;;;10.30;99.90;;;;;;5042376;27;20047;-80
2022/09/30 01:14:11;;;;;;;0.50;0.50;;;10.20;99.90;;;;;;5021893;27;20488;-80
2022/09/30 01:16:49;;;;;;;0.55;0.55;;;10.20;99.90;;;;;;5026686;27;20266;-80
2022/09/30 01:19:54;;;;;;;0.50;0.50;;;10.20;99.90;;;;;;5022362;27;20050;-80
2022/09/30 01:23:10;;;;;;;0.50;0.50;;;10.40;99.90;;;;;;5034802;27;20557;-80
2022/09/30 01:26:01;;;;;;;0.50;0.50;;;10.30;99.90;;;;;;4963027;27;20063;-79
2022/09/30 01:28:46;;;;;;;0.50;0.50;;;10.30;99.90;;;;;;4996935;27;20564;-80
2022/09/30 01:31:35;;;;;;;0.50;0.50;;;10.30;99.90;;;;;;5017597;27;20875;-80
2022/09/30 01:34:06;;;;;;;0.50;0.50;;;10.30;99.90;;;;;;5031119;27;20040;-80
2022/09/30 01:36:52;;;;;;;0.50;0.50;;;10.20;99.90;;;;;;5030514;27;20073;-80
2022/09/30 01:39:56;;;;;;;0.60;0.60;;;10.20;99.90;;;;;;4998595;27;20047;-80
2022/09/30 01:42:41;;;;;;;0.50;0.50;;;10.30;99.90;;;;;;5027579;27;20645;-80
2022/09/30 01:45:09;;;;;;;0.50;0.50;;;10.20;99.90;;;;;;5031753;27;20096;-80
2022/09/30 01:47:45;;;;;;;0.57;0.57;;;10.20;99.90;;;;;;5017148;27;20404;-79
2022/09/30 01:50:33;;;;;;;0.50;0.50;;;10.10;99.90;;;;;;5020850;27;20054;-80
2022/09/30 01:53:22;;;;;;;0.50;0.50;;;10.00;99.90;;;;;;5026894;27;20417;-80
2022/09/30 01:56:18;;;;;;;0.50;0.50;;;10.00;99.90;;;;;;5008271;27;20055;-80
2022/09/30 01:58:44;;;;;;;0.50;0.50;;;9.90;99.90;;;;;;5022318;27;20500;-80
2022/09/30 02:01:26;;;;;;;0.50;0.50;;;9.70;99.90;;;;;;5027289;27;20047;-80
2022/09/30 02:03:59;;;;;;;0.50;0.50;;;9.60;99.90;;;;;;5028836;27;20446;-80
2022/09/30 02:06:31;;;;;;;0.50;0.50;;;9.70;99.90;;;;;;5004006;27;20127;-80
2022/09/30 02:09:27;;;;;;;0.60;0.60;;;9.60;99.90;;;;;;5030618;27;20279;-80
2022/09/30 02:11:57;;;;;;;0.50;0.50;;;9.50;99.90;;;;;;5024730;27;20055;-80
2022/09/30 02:14:29;;;;;;;0.50;0.50;;;9.40;99.90;;;;;;5020560;27;20174;-80
2022/09/30 02:17:09;;;;;;;0.50;0.50;;;9.40;99.90;;;;;;5026903;27;21086;-80
2022/09/30 02:19:51;;;;;;;0.50;0.50;;;9.40;99.90;;;;;;5023237;27;20074;-80
2022/09/30 02:22:27;;;;;;;0.50;0.50;;;9.30;99.90;;;;;;5004709;27;20043;-80
2022/09/30 02:25:00;;;;;;;0.50;0.50;;;9.00;99.90;;;;;;5025465;27;20044;-80
2022/09/30 02:27:40;;;;;;;0.50;0.50;;;9.10;99.90;;;;;;5015259;27;20211;-81
2022/09/30 02:30:08;;;;;;;0.50;0.50;;;9.10;99.90;;;;;;5025841;27;20809;-80
2022/09/30 02:32:49;;;;;;;0.50;0.50;;;8.90;99.90;;;;;;5016758;27;20264;-80
2022/09/30 02:35:32;;;;;;;0.50;0.50;;;9.00;99.90;;;;;;5035285;27;20373;-80
2022/09/30 02:38:08;;;;;;;0.60;0.60;;;9.00;99.90;;;;;;5046863;27;20276;-81
2022/09/30 02:40:42;;;;;;;0.50;0.50;;;9.00;99.90;;;;;;5052129;27;20048;-80
2022/09/30 02:43:09;;;;;;;0.60;0.60;;;9.00;99.90;;;;;;5022065;27;20545;-81
2022/09/30 02:46:02;;;;;;;0.60;0.60;;;9.00;99.90;;;;;;5026625;27;20411;-80
2022/09/30 02:48:42;;;;;;;0.50;0.50;;;9.00;99.90;;;;;;5023440;27;20052;-80
2022/09/30 02:51:50;;;;;;;0.50;0.50;;;9.00;99.90;;;;;;5011685;27;20468;-81
2022/09/30 02:54:29;;;;;;;0.50;0.50;;;9.00;99.90;;;;;;5003687;27;20055;-80
2022/09/30 02:57:14;;;;;;;0.50;0.50;;;9.00;99.90;;;;;;5021612;27;20674;-81
2022/09/30 02:59:40;;;;;;;0.60;0.60;;;8.90;99.90;;;;;;5000612;27;20047;-80
2022/09/30 03:02:06;;;;;;;0.50;0.50;;;8.80;99.90;;;;;;5027670;27;20057;-80
2022/09/30 03:04:34;;;;;;;0.50;0.50;;;8.80;99.90;;;;;;5032522;27;20495;-80
2022/09/30 03:07:00;;;;;;;0.50;0.50;;;8.80;99.90;;;;;;5023322;27;20433;-81
2022/09/30 03:09:27;;;;;;;0.50;0.50;;;8.70;99.90;;;;;;5028456;27;20472;-81
2022/09/30 03:12:06;;;;;;;0.57;0.57;;;8.90;99.90;;;;;;5006670;27;20124;-81
2022/09/30 03:14:58;;;;;;;0.50;0.50;;;8.70;99.90;;;;;;5018353;27;20099;-81
2022/09/30 03:17:46;;;;;;;0.50;0.50;;;8.80;99.90;;;;;;5027151;27;20074;-80
2022/09/30 03:20:21;;;;;;;0.50;0.50;;;8.80;99.90;;;;;;5021819;27;20049;-81
2022/09/30 03:23:16;;;;;;;0.57;0.57;;;8.70;99.90;;;;;;5023242;27;20048;-80
2022/09/30 03:26:02;;;;;;;0.50;0.50;;;8.70;99.90;;;;;;5034732;27;20055;-81
2022/09/30 03:28:47;;;;;;;0.50;0.50;;;8.70;99.90;;;;;;5031886;27;20478;-80
2022/09/30 03:31:19;;;;;;;0.60;0.60;;;8.50;99.90;;;;;;5023470;27;20056;-81
2022/09/30 03:33:53;;;;;;;0.60;0.60;;;8.10;99.90;;;;;;5001489;27;20055;-81
2022/09/30 03:36:19;;;;;;;0.50;0.50;;;8.10;99.90;;;;;;5026938;27;20047;-81
2022/09/30 03:38:55;;;;;;;0.60;0.60;;;8.00;99.90;;;;;;5028928;27;20078;-81
2022/09/30 03:41:44;;;;;;;0.50;0.50;;;8.10;99.90;;;;;;5021992;27;20032;-81
2022/09/30 03:44:22;;;;;;;0.60;0.60;;;8.10;99.90;;;;;;5019888;27;20047;-81
2022/09/30 03:47:05;;;;;;;0.60;0.60;;;8.10;99.90;;;;;;5026009;27;20135;-81
2022/09/30 03:49:41;;;;;;;0.60;0.60;;;8.00;99.90;;;;;;5027141;27;20058;-81
2022/09/30 03:52:10;;;;;;;0.60;0.60;;;8.10;99.90;;;;;;5027896;27;20074;-81
2022/09/30 03:54:52;;;;;;;0.60;0.60;;;8.20;99.90;;;;;;5026440;27;20042;-81
2022/09/30 03:57:18;;;;;;;0.60;0.60;;;8.30;99.90;;;;;;5031276;27;20067;-81
2022/09/30 03:59:44;;;;;;;0.55;0.55;;;8.20;99.90;;;;;;5016349;27;21304;-81
2022/09/30 04:02:12;;;;;;;0.60;0.60;;;8.20;99.90;;;;;;5031435;27;20518;-81
2022/09/30 04:04:41;;;;;;;0.60;0.60;;;8.20;99.90;;;;;;5052153;27;20433;-81
2022/09/30 04:07:11;;;;;;;0.60;0.60;;;8.00;99.90;;;;;;5020812;28;20043;-81
2022/09/30 04:09:38;;;;;;;0.63;0.63;;;7.70;99.90;;;;;;5031081;27;20150;-81
2022/09/30 04:12:04;;;;;;;0.60;0.60;;;7.70;99.90;;;;;;5044762;27;20566;-80
2022/09/30 04:14:30;;;;;;;0.50;0.50;;;7.80;99.90;;;;;;5024762;28;20413;-81
2022/09/30 04:16:57;;;;;;;0.50;0.50;;;7.60;99.90;;;;;;5000042;28;20450;-81
2022/09/30 04:19:23;;;;;;;0.60;0.60;;;7.60;99.90;;;;;;5007927;27;20047;-81
2022/09/30 04:21:53;;;;;;;0.60;0.60;;;7.70;99.90;;;;;;5006886;28;20046;-82
2022/09/30 04:24:23;;;;;;;0.60;0.60;;;7.80;99.90;;;;;;5022713;27;20039;-81
2022/09/30 04:26:49;;;;;;;0.60;0.60;;;7.80;99.90;;;;;;5006048;28;20622;-81
2022/09/30 04:29:16;;;;;;;0.60;0.60;;;7.90;99.90;;;;;;5005271;28;20165;-82
2022/09/30 04:31:42;;;;;;;0.50;0.50;;;7.90;99.90;;;;;;5028351;27;20058;-81
2022/09/30 04:34:10;;;;;;;0.50;0.50;;;7.70;99.90;;;;;;5010468;28;20495;-82
2022/09/30 04:36:36;;;;;;;0.60;0.60;;;7.60;99.90;;;;;;4985955;28;20051;-82
2022/09/30 04:39:02;;;;;;;0.60;0.60;;;7.60;99.90;;;;;;5034748;27;20047;-81
2022/09/30 04:41:28;;;;;;;0.60;0.60;;;7.70;99.90;;;;;;5035774;27;20043;-81
2022/09/30 04:43:54;;;;;;;0.60;0.60;;;7.80;99.90;;;;;;5029613;27;20054;-81
2022/09/30 04:46:21;;;;;;;0.60;0.60;;;7.80;99.90;;;;;;5010301;28;20052;-81
2022/09/30 04:48:48;;;;;;;0.60;0.60;;;7.80;99.90;;;;;;5005352;28;20051;-82
2022/09/30 04:51:16;;;;;;;0.57;0.57;;;7.90;99.90;;;;;;5021128;28;20773;-83
2022/09/30 04:53:43;;;;;;;0.60;0.60;;;7.80;99.90;;;;;;5006168;28;20198;-83
2022/09/30 04:56:09;;;;;;;0.60;0.60;;;7.80;99.90;;;;;;5017816;28;20251;-82
2022/09/30 04:58:36;;;;;;;0.60;0.60;;;7.70;99.90;;;;;;5016178;28;20036;-81
2022/09/30 05:01:08;;;;;;;0.60;0.60;;;7.60;99.90;;;;;;5009417;28;20390;-81
2022/09/30 05:03:34;;;;;;;0.50;0.50;;;7.40;99.90;;;;;;5012316;28;20501;-82
2022/09/30 05:06:05;;;;;;;0.68;0.68;;;7.20;99.90;;;;;;5002960;28;21082;-82
2022/09/30 05:08:33;;;;;;;0.60;0.60;;;7.20;99.90;;;;;;4991523;28;20052;-83
2022/09/30 05:11:07;;;;;;;0.60;0.60;;;7.00;99.90;;;;;;4998549;28;20047;-83
2022/09/30 05:13:36;;;;;;;0.70;0.70;;;7.10;99.90;;;;;;5001624;27;20434;-83
2022/09/30 05:16:02;;;;;;;0.70;0.70;;;7.00;99.90;;;;;;5005682;28;20460;-82
2022/09/30 05:18:28;;;;;;;0.60;0.60;;;6.90;99.90;;;;;;5006520;27;20163;-81
2022/09/30 05:20:56;;;;;;;0.60;0.60;;;6.80;99.90;;;;;;4999611;28;20366;-82
2022/09/30 05:23:23;;;;;;;0.60;0.60;;;6.80;99.90;;;;;;5001218;28;20044;-82
2022/09/30 05:25:50;;;;;;;0.60;0.60;;;6.80;99.90;;;;;;5003540;28;20062;-82
2022/09/30 05:28:17;;;;;;;0.60;0.60;;;6.90;99.90;;;;;;5013354;28;20428;-83
2022/09/30 05:30:44;;;;;;;0.60;0.60;;;7.00;99.90;;;;;;5008128;28;20462;-83
2022/09/30 05:33:11;;;;;;;0.60;0.60;;;7.00;99.90;;;;;;5003891;28;20061;-82
2022/09/30 05:35:41;;;;;;;0.60;0.60;;;6.90;99.90;;;;;;5007857;28;20054;-82
2022/09/30 05:38:09;;;;;;;0.70;0.70;;;6.90;99.90;;;;;;5004571;28;20044;-82
2022/09/30 05:40:38;;;;;;;0.60;0.60;;;6.70;99.90;;;;;;5001889;28;20070;-83
2022/09/30 05:43:04;;;;;;;0.60;0.60;;;6.60;99.90;;;;;;4983737;28;20048;-82
2022/09/30 05:45:30;;;;;;;0.60;0.60;;;6.60;99.90;;;;;;4997326;28;20062;-83
2022/09/30 05:47:56;;;;;;;0.60;0.60;;;6.70;99.90;;;;;;4993027;28;20055;-82
2022/09/30 05:50:23;;;;;;;0.70;0.70;;;6.70;99.90;;;;;;5010262;28;20501;-81
2022/09/30 05:52:50;;;;;;;0.60;0.60;;;6.80;99.90;;;;;;5029089;28;20945;-83
2022/09/30 05:55:16;;;;;;;0.60;0.60;;;6.90;99.90;;;;;;4989600;28;20076;-82
2022/09/30 05:57:42;;;;;;;0.60;0.60;;;6.90;99.90;;;;;;5002547;27;20105;-81
2022/09/30 06:00:09;;;;;;;0.60;0.60;;;6.70;99.90;;;;;;5005339;27;20059;-81
2022/09/30 06:02:37;;;;;;;0.60;0.60;;;6.70;99.90;;;;;;5005244;28;20052;-82
2022/09/30 06:05:05;;;;;;;0.60;0.60;;;6.80;99.90;;;;;;4998646;27;20055;-81
2022/09/30 06:07:33;;;;;;;0.60;0.60;;;6.90;99.90;;;;;;5002051;28;20794;-80
2022/09/30 06:09:59;;;;;;;0.60;0.60;;;6.90;99.90;;;;;;4981892;28;20056;-81
2022/09/30 06:12:27;;;;;;;0.60;0.60;;;7.10;99.90;;;;;;5003391;28;20058;-82
2022/09/30 06:14:54;;;;;;;0.60;0.60;;;7.20;99.90;;;;;;5011927;28;20411;-81
2022/09/30 06:17:23;;;;;;;0.70;0.70;;;7.50;99.90;;;;;;5004235;28;20598;-82
2022/09/30 06:19:49;;;;;;;0.60;0.60;;;7.70;99.90;;;;;;5011104;28;20159;-81
2022/09/30 06:22:17;;;;;;;0.60;0.60;;;7.80;99.90;;;;;;5008208;28;20053;-82
2022/09/30 06:24:44;;;;;;;0.60;0.60;;;8.00;99.90;;;;;;5003484;28;20773;-81
2022/09/30 06:27:10;;;;;;;0.60;0.60;;;8.10;99.90;;;;;;4984905;28;20047;-83
2022/09/30 06:29:37;;;;;;;0.60;0.60;;;8.20;99.90;;;;;;5008292;28;20080;-81
2022/09/30 06:32:03;;;;;;;0.60;0.60;;;8.30;99.90;;;;;;4980304;28;20056;-82
2022/09/30 06:34:29;;;;;;;0.60;0.60;;;8.50;99.90;;;;;;5010093;28;20583;-83
2022/09/30 06:36:55;;;;;;;0.60;0.60;;;8.50;99.90;;;;;;5005674;28;20432;-82
2022/09/30 06:39:21;;;;;;;0.60;0.60;;;8.60;99.90;;;;;;5013027;28;20047;-86
2022/09/30 06:41:47;;;;;;;0.60;0.60;;;8.60;99.90;;;;;;5010233;28;20044;-85
2022/09/30 06:44:13;;;;;;;0.60;0.60;;;8.80;99.90;;;;;;5000723;28;20928;-83
2022/09/30 06:46:39;;;;;;;0.60;0.60;;;8.90;99.90;;;;;;4993339;28;20063;-82
2022/09/30 06:49:06;;;;;;;0.50;0.50;;;9.00;99.90;;;;;;4981452;28;20057;-83
2022/09/30 06:51:32;;;;;;;0.60;0.60;;;9.10;99.90;;;;;;4984783;28;20040;-83
2022/09/30 06:53:59;;;;;;;0.50;0.50;;;9.20;99.90;;;;;;4988867;28;20436;-84
2022/09/30 06:56:26;;;;;;;0.50;0.50;;;9.30;99.90;;;;;;4984228;28;20168;-82
2022/09/30 06:58:52;;;;;;;0.60;0.60;;;9.40;99.90;;;;;;4992026;28;20051;-83
2022/09/30 07:01:19;;;;;;;0.50;0.50;;;9.40;99.90;;;;;;4985920;28;20044;-82
2022/09/30 07:03:46;;;;;;;0.50;0.50;;;9.60;99.90;;;;;;4993978;28;20055;-82
2022/09/30 07:06:14;;;;;;;0.50;0.50;;;9.70;99.90;;;;;;4985447;28;20527;-84
2022/09/30 07:08:40;;;;;;;0.50;0.50;;;9.80;99.90;;;;;;4969277;28;20058;-82
2022/09/30 07:11:13;;;;;;;0.50;0.50;;;9.90;99.90;;;;;;4979912;28;20400;-82
2022/09/30 07:13:44;;;;;;;0.50;0.50;;;10.10;99.90;;;;;;4983779;28;20040;-80
2022/09/30 07:16:11;;;;;;;0.50;0.50;;;10.10;99.90;;;;;;4981273;28;20041;-80
2022/09/30 07:18:37;;;;;;;0.50;0.50;;;10.20;99.90;;;;;;4977631;28;20151;-80
2022/09/30 07:21:04;;;;;;;0.60;0.60;;;10.40;99.90;;;;;;4977687;28;20774;-81
2022/09/30 07:23:30;;;;;;;0.50;0.50;;;10.50;99.90;;;;;;4982079;28;20490;-79
2022/09/30 07:25:59;;;;;;;0.50;0.50;;;10.60;99.90;;;;;;4985566;28;20052;-80
2022/09/30 07:28:30;;;;;;;0.50;0.50;;;10.70;99.90;;;;;;4985840;28;20474;-79
2022/09/30 07:30:57;;;;;;;0.50;0.50;;;10.70;99.90;;;;;;4980722;28;20184;-79
2022/09/30 07:33:27;;;;;;;0.60;0.60;;;10.80;99.90;;;;;;4987542;28;20505;-80
2022/09/30 07:35:55;;;;;;;0.50;0.50;;;11.00;99.90;;;;;;4986843;28;20169;-81
2022/09/30 07:38:24;;;;;;;0.50;0.50;;;11.20;99.90;;;;;;4980439;28;20044;-81
2022/09/30 07:41:00;;;;;;;0.50;0.50;;;11.30;99.90;;;;;;4978783;28;20135;-81
2022/09/30 07:43:33;;;;;;;0.50;0.50;;;11.30;99.90;;;;;;4987813;28;20048;-81
2022/09/30 07:46:07;;;;;;;0.50;0.50;;;11.40;99.90;;;;;;4989122;27;20508;-80
2022/09/30 07:48:44;;;;;;;0.50;0.50;;;11.50;99.90;;;;;;4999407;27;20507;-80
2022/09/30 07:51:12;;;;;;;0.50;0.50;;;11.50;99.90;;;;;;5024217;27;20614;-80
2022/09/30 07:53:39;;;;;;;0.50;0.50;;;11.60;99.90;;;;;;5024018;27;20436;-80
2022/09/30 07:56:06;;;;;;;0.50;0.50;;;11.70;99.90;;;;;;5026479;27;20050;-80
2022/09/30 07:58:32;;;;;;;0.70;0.70;;;11.80;99.90;;;;;;4999133;27;20096;-80
2022/09/30 08:00:58;;;;;;;0.50;0.50;;;11.90;99.90;;;;;;4998968;27;20463;-80
2022/09/30 08:03:24;;;;;;;0.60;0.60;;;12.10;99.90;;;;;;4995613;28;20044;-79
2022/09/30 08:05:50;;;;;;;0.50;0.50;;;12.10;99.90;;;;;;4985098;27;20476;-79
2022/09/30 08:08:17;;;;;;;0.50;0.50;;;12.10;99.90;;;;;;4998536;27;20051;-79
2022/09/30 08:10:43;;;;;;;0.50;0.50;;;12.20;99.90;;;;;;4997613;27;20129;-80
2022/09/30 08:13:12;;;;;;;0.60;0.60;;;12.40;99.90;;;;;;5020570;27;20270;-78
2022/09/30 08:15:39;;;;;;;0.50;0.50;;;12.50;99.90;;;;;;4994074;27;20093;-80
2022/09/30 08:18:05;;;;;;;0.55;0.55;;;12.60;99.90;;;;;;5015752;27;20943;-80
2022/09/30 08:20:31;;;;;;;0.50;0.50;;;12.80;99.90;;;;;;4998989;27;20466;-79
2022/09/30 08:22:57;;;;;;;0.50;0.50;;;12.80;99.90;;;;;;5004197;27;20050;-79
2022/09/30 08:25:23;;;;;;;0.60;0.60;;;12.90;99.90;;;;;;5025041;27;20835;-80
2022/09/30 08:27:49;;;;;;;0.60;0.60;;;13.00;99.90;;;;;;5003516;27;20249;-80
2022/09/30 08:30:16;;;;;;;0.60;0.60;;;13.10;99.90;;;;;;5018026;28;20707;-78
2022/09/30 08:32:42;;;;;;;0.52;0.52;;;13.20;99.90;;;;;;5003032;28;20047;-80
2022/09/30 08:35:08;;;;;;;0.50;0.50;;;13.30;99.90;;;;;;5025224;27;20505;-78
2022/09/30 08:37:34;;;;;;;0.50;0.50;;;13.40;99.90;;;;;;5027921;27;20051;-79
2022/09/30 08:40:00;;;;;;;0.50;0.50;;;13.50;99.90;;;;;;4978028;28;20051;-79
2022/09/30 08:42:48;;;;;;;0.50;0.50;;;13.60;99.90;;;;;;5000515;27;20897;-80
2022/09/30 08:45:36;;;;;;;0.50;0.50;;;13.80;99.90;;;;;;5020336;28;20132;-79
2022/09/30 08:48:19;;;;;;;0.50;0.50;;;13.90;99.90;;;;;;5023092;28;20063;-79
2022/09/30 08:51:14;;;;;;;0.50;0.50;;;13.90;99.90;;;;;;4983274;28;20111;-79
2022/09/30 08:53:44;;;;;;;0.50;0.50;;;14.10;99.90;;;;;;5004772;28;20291;-80
2022/09/30 08:56:31;;;;;;;0.60;0.60;;;14.30;99.90;;;;;;5001660;28;20236;-80
2022/09/30 08:59:26;;;;;;;0.50;0.50;;;14.40;99.90;;;;;;5019421;28;20044;-80
2022/09/30 09:01:59;;;;;;;0.50;0.50;;;14.50;99.90;;;;;;5024115;28;20131;-77
2022/09/30 09:04:26;;;;;;;0.50;0.50;;;14.60;99.90;;;;;;5003353;28;20396;-77
2022/09/30 09:07:01;;;;;;;0.50;0.50;;;14.80;99.90;;;;;;5017928;28;20695;-78
2022/09/30 09:09:46;;;;;;;0.43;0.43;;;14.80;99.90;;;;;;5021611;28;20043;-77
2022/09/30 09:12:30;;;;;;;0.50;0.50;;;14.90;99.90;;;;;;5005765;28;20051;-79
2022/09/30 09:15:16;;;;;;;0.40;0.40;;;14.90;99.90;;;;;;5016166;28;20084;-78
2022/09/30 09:18:11;;;;;;;0.50;0.50;;;15.00;99.90;;;;;;5007308;28;20279;-78
2022/09/30 09:21:08;;;;;;;0.50;0.50;;;15.20;99.90;;;;;;5017382;28;20085;-82
2022/09/30 09:23:34;;;;;;;0.50;0.50;;;15.40;99.90;;;;;;5017498;28;20887;-79
2022/09/30 09:26:02;;;;;;;0.40;0.40;;;15.40;99.90;;;;;;5001680;28;20661;-79
2022/09/30 09:28:46;;;;;;;0.50;0.50;;;15.70;99.90;;;;;;5016697;28;20527;-80
2022/09/30 09:31:16;;;;;;;0.50;0.50;;;15.60;99.90;;;;;;5019644;28;20825;-79
2022/09/30 09:33:42;;;;;;;0.50;0.50;;;15.70;99.90;;;;;;5022163;28;20446;-79
2022/09/30 09:36:30;;;;;;;0.43;0.43;;;15.70;99.90;;;;;;5016911;28;20138;-79
2022/09/30 09:39:08;;;;;;;0.40;0.40;;;15.70;99.90;;;;;;5023135;28;20135;-80
2022/09/30 09:41:59;;;;;;;0.40;0.40;;;15.80;99.90;;;;;;5016525;28;20049;-79
2022/09/30 09:44:50;;;;;;;0.40;0.40;;;15.90;99.90;;;;;;5019461;28;20043;-77
2022/09/30 09:47:16;;;;;;;0.50;0.50;;;16.20;99.90;;;;;;4997984;28;20926;-80
2022/09/30 09:50:02;;;;;;;0.40;0.40;;;16.10;99.90;;;;;;4978714;28;20054;-81
2022/09/30 09:52:34;;;;;;;0.50;0.50;;;16.10;99.90;;;;;;5022895;27;20951;-80
2022/09/30 09:55:01;;;;;;;0.50;0.50;;;16.20;99.90;;;;;;5004520;28;20270;-79
2022/09/30 09:57:31;;;;;;;0.40;0.40;;;16.20;99.90;;;;;;5018021;27;20522;-79
2022/09/30 10:01:09;;;;;;;0.50;0.50;;;16.40;99.90;;;;;;5018263;27;20103;-80
2022/09/30 10:03:07;;;;;;;0.40;0.40;;;16.50;99.90;;;;;;5023728;27;21182;-81
2022/09/30 10:05:38;;;;;;;0.40;0.40;;;16.40;99.90;;;;;;5000241;27;20062;-79
2022/09/30 10:08:10;;;;;;;0.40;0.40;;;16.50;99.90;;;;;;4997952;27;20054;-80
2022/09/30 10:10:47;;;;;;;0.47;0.47;;;16.60;99.90;;;;;;4995701;28;20511;-80
2022/09/30 10:13:29;;;;;;;0.43;0.43;;;16.60;99.90;;;;;;5004788;27;20051;-81
2022/09/30 10:15:58;;;;;;;0.50;0.50;;;16.80;99.90;;;;;;5019371;27;20430;-81
2022/09/30 10:18:42;;;;;;;0.40;0.40;;;16.90;99.90;;;;;;4976494;27;20059;-79
2022/09/30 10:21:22;;;;;;;0.45;0.45;;;16.80;99.90;;;;;;5020965;27;20066;-80
2022/09/30 10:23:49;;;;;;;0.43;0.43;;;16.90;99.90;;;;;;5003956;28;20644;-82
2022/09/30 10:26:17;;;;;;;0.50;0.50;;;17.00;99.90;;;;;;5019365;27;20050;-80
2022/09/30 10:28:50;;;;;;;0.50;0.50;;;16.90;99.90;;;;;;5020046;27;20443;-80
2022/09/30 10:31:28;;;;;;;0.40;0.40;;;16.90;99.90;;;;;;5020627;27;20234;-79
2022/09/30 10:34:33;;;;;;;0.40;0.40;;;17.00;99.90;;;;;;5002799;27;20078;-82
2022/09/30 10:37:21;;;;;;;0.40;0.40;;;17.20;99.90;;;;;;5013760;27;20130;-80
2022/09/30 10:40:05;;;;;;;0.40;0.40;;;17.40;99.90;;;;;;5000890;28;20450;-81
2022/09/30 10:42:33;;;;;;;0.50;0.50;;;17.30;99.90;;;;;;5003156;27;20821;-80
2022/09/30 10:45:17;;;;;;;0.40;0.40;;;17.30;99.90;;;;;;5004197;27;20055;-79
2022/09/30 10:47:45;;;;;;;0.40;0.40;;;17.40;99.90;;;;;;5021597;27;20806;-83
2022/09/30 10:50:19;;;;;;;0.40;0.40;;;17.40;99.90;;;;;;5023189;27;20051;-81
2022/09/30 10:52:55;;;;;;;0.40;0.40;;;17.50;99.90;;;;;;5023615;27;20435;-82
2022/09/30 10:55:28;;;;;;;0.50;0.50;;;17.60;99.90;;;;;;5011491;27;20146;-81
2022/09/30 10:57:56;;;;;;;0.40;0.40;;;17.50;99.90;;;;;;5005414;27;20112;-80
2022/09/30 11:00:24;;;;;;;0.50;0.50;;;17.50;99.90;;;;;;5018806;27;20118;-81
2022/09/30 11:02:56;;;;;;;0.43;0.43;;;17.70;99.90;;;;;;5023373;27;20051;-81
2022/09/30 11:05:23;;;;;;;0.40;0.40;;;18.00;99.90;;;;;;5003531;28;20052;-80
2022/09/30 11:07:58;;;;;;;0.40;0.40;;;18.10;99.90;;;;;;5018616;27;20055;-80
2022/09/30 11:10:42;;;;;;;0.40;0.40;;;18.30;99.90;;;;;;4996190;27;20472;-82
2022/09/30 11:13:35;;;;;;;0.50;0.50;;;18.30;99.90;;;;;;5022432;27;20047;-78
2022/09/30 11:16:07;;;;;;;0.40;0.40;;;18.40;99.90;;;;;;5024477;27;20043;-81
2022/09/30 11:18:49;;;;;;;0.40;0.40;;;18.50;99.90;;;;;;5021938;27;20402;-83
2022/09/30 11:21:27;;;;;;;0.40;0.40;;;18.50;99.90;;;;;;5017527;27;20236;-82
2022/09/30 11:24:02;;;;;;;0.40;0.40;;;18.50;99.90;;;;;;4996477;27;20135;-79
2022/09/30 11:26:49;;;;;;;0.40;0.40;;;18.90;99.90;;;;;;5010406;27;20104;-80
2022/09/30 11:29:18;;;;;;;0.40;0.40;;;18.60;99.90;;;;;;5000171;27;20035;-81
2022/09/30 11:31:57;;;;;;;0.38;0.38;;;18.70;99.90;;;;;;5023648;27;20050;-80
2022/09/30 11:34:44;;;;;;;0.40;0.40;;;18.50;99.90;;;;;;5005000;27;20035;-80
2022/09/30 11:37:41;;;;;;;0.40;0.40;;;18.50;99.90;;;;;;5015536;27;21024;-80
2022/09/30 11:40:30;;;;;;;0.40;0.40;;;18.60;99.90;;;;;;5021017;27;20050;-80
2022/09/30 11:43:25;;;;;;;0.40;0.40;;;18.70;99.90;;;;;;5016384;27;20138;-80
2022/09/30 11:46:19;;;;;;;0.40;0.40;;;18.80;99.90;;;;;;5021847;27;20058;-81
2022/09/30 11:49:04;;;;;;;0.40;0.40;;;18.80;99.90;;;;;;5008907;28;21798;-82
2022/09/30 11:52:01;;;;;;;0.40;0.40;;;19.00;99.90;;;;;;4996274;28;20059;-81
2022/09/30 11:54:51;;;;;;;0.40;0.40;;;19.10;99.90;;;;;;4998185;28;20499;-85
2022/09/30 11:57:32;;;;;;;0.40;0.40;;;19.00;99.90;;;;;;5000118;28;20136;-80
2022/09/30 12:00:08;;;;;;;0.40;0.40;;;19.10;99.90;;;;;;5000391;28;20100;-82
2022/09/30 12:02:42;;;;;;;0.40;0.40;;;18.40;99.90;;;;;;4999439;28;20527;-79
2022/09/30 12:05:15;;;;;;;0.40;0.40;;;18.50;99.90;;;;;;4997571;28;20142;-79
2022/09/30 12:07:50;;;;;;;0.30;0.30;;;18.90;99.90;;;;;;4995741;28;20239;-83
2022/09/30 12:10:30;;;;;;;0.40;0.40;;;18.80;99.90;;;;;;4997980;28;20438;-83
2022/09/30 12:13:12;;;;;;;0.40;0.40;;;18.10;99.90;;;;;;4993545;28;20074;-79
2022/09/30 12:15:42;;;;;;;0.40;0.40;;;17.90;99.90;;;;;;4991531;28;20066;-79
2022/09/30 12:18:38;;;;;;;0.40;0.40;;;17.80;99.90;;;;;;4988433;28;20813;-80
2022/09/30 12:21:31;;;;;;;0.40;0.40;;;18.10;99.90;;;;;;4993646;28;20414;-79
2022/09/30 12:24:14;;;;;;;0.43;0.43;;;17.70;99.90;;;;;;5000446;28;20100;-80
2022/09/30 12:26:40;;;;;;;0.40;0.40;;;18.40;99.90;;;;;;4991839;28;20486;-81
2022/09/30 12:33:16;;;;;;;0.40;0.40;;;18.80;99.90;;;;;;5001966;28;20108;-78
2022/09/30 12:36:11;;;;;;;0.40;0.40;;;18.60;99.90;;;;;;4913905;28;20379;-79
2022/09/30 12:38:50;;;;;;;0.40;0.40;;;18.40;99.90;;;;;;4937810;28;20744;-82
2022/09/30 12:41:46;;;;;;;0.40;0.40;;;18.90;99.90;;;;;;4991952;28;20066;-83
2022/09/30 12:45:01;;;;;;;0.75;0.75;;;18.90;99.90;;;;;;4995724;28;20513;-81
2022/09/30 12:47:50;;;;;;;0.40;0.40;;;19.00;99.90;;;;;;4957424;28;20063;-82
2022/09/30 12:50:20;;;;;;;0.30;0.30;;;19.10;99.90;;;;;;5000196;28;20052;-82
2022/09/30 12:52:48;;;;;;;0.40;0.40;;;19.00;99.90;;;;;;4996353;28;20143;-80
2022/09/30 12:55:37;;;;;;;0.40;0.40;;;18.30;99.90;;;;;;4995919;28;20056;-86
2022/09/30 12:58:04;;;;;;;0.40;0.40;;;17.80;99.90;;;;;;4994143;28;20400;-82
2022/09/30 13:00:36;;;;;;;0.40;0.40;;;17.90;99.90;;;;;;4996531;28;20047;-80
2022/09/30 13:03:16;;;;;;;0.40;0.40;;;17.80;99.90;;;;;;4997322;28;20493;-81
2022/09/30 13:05:50;;;;;;;0.40;0.40;;;17.90;99.90;;;;;;5000715;28;20044;-79
2022/09/30 13:08:22;;;;;;;0.40;0.40;;;17.90;99.90;;;;;;4991244;28;20567;-80
2022/09/30 13:11:03;;;;;;;0.40;0.40;;;17.80;99.90;;;;;;5000986;28;20151;-80
2022/09/30 13:13:32;;;;;;;0.40;0.40;;;18.10;99.90;;;;;;4998134;28;20126;-82
2022/09/30 13:16:03;;;;;;;0.40;0.40;;;18.30;99.90;;;;;;4995662;28;20044;-80
2022/09/30 13:18:29;;;;;;;0.40;0.40;;;18.50;99.90;;;;;;4998791;28;20090;-82
2022/09/30 13:21:05;;;;;;;0.40;0.40;;;18.60;99.90;;;;;;4993340;28;20052;-81
2022/09/30 13:23:38;;;;;;;0.40;0.40;;;18.60;99.90;;;;;;4998660;28;20117;-79
2022/09/30 13:26:37;;;;;;;0.40;0.40;;;18.60;99.90;;;;;;4996205;28;21459;-82
2022/09/30 13:29:15;;;;;;;0.40;0.40;;;18.70;99.90;;;;;;4997495;28;20110;-83
2022/09/30 13:31:44;;;;;;;0.40;0.40;;;18.70;99.90;;;;;;5001081;27;20044;-79